Timeline UpdatesTrip UpdatesNews PostsPvt PostsTravel TipsAdmin PostsConv PostsFollowed PostsChat RequestsBlog PostsPNR Posts

Disclaimer
Search
 
 
Sat Apr 19, 2014 13:33:21 ISTHomeTrainsΣChainsAtlasPNRForumGalleryNewsFAQTripsMembersLoginFeedback
No Recent News for this Train
Other Trains in the News **new
Latest...
ECoR TO CANCEL LOCAL PASSENGER TRAINS IN VIEW OF EXPECTED CYCLONE o­n 12th October 2013. The following trains are: 58417/58418 Puri-Gunupur-Puri passenger
Sat Oct 12, 2013 (09:32AM)
⇐ Return Journey: Train# 58418

58417/Puri Gunupur Passenger (UnReserved)

Aug 04 2013 (5:19PM)
Change Departure Station:
Change Arrival Station:
Post a Train Travel TipPost a Train Travel Tip **new
Post a Comment/Question/Picture/VideoPost a Comment/Question/Picture/Video
Pantry/Catering
✕ NO Pantry Car
✕ NO Catering
Loco/Rake Reversals
KUR/Khurda Road Junction (7);
RSA - Rake Sharing
Rake/Coach Composition
This train will run with 08 coaches i.e. Two Guard cum luggage vans, 05 General Second Class coaches and One Parcel Van.
Loco
News    PNR    Forum    Time-Table    Availability    Fare Chart    Map    Arr/Dep History    Trips    Gallery    ΣChains    X/O    Timeline    
Travel Time: 1h 20m    9 halts    Distance: 44 km    Avg Speed: 33 km/hr
Type: Passenger
Zone: ECoR/East Coast
Departs @ 08:30 (Avg 2m late)
Platform# ???
SMTWTFS
Puri/PURI 
Arrives @ 09:50 (Avg 5m late)
Platform# ???
SMTWTFS
Khurda Road Junction/KUR 

9 halts. 9 intermediate Stations between Puri and Khurda Road Junction

Show ALL intermediate Stations  Show Old Time-Table

#CodeStation NameX/OArrivesAvgDepartsAvgHaltPFDay#KmSpeedElevZoneAddress
1PURI»Puri (5)»  -08:30+2--10.03712mECoRPuri, Odisha
2MLTMalatipatpur (1)X  08:42+508:44+42m117.34615mECoRPuri, Odisha
3JKDPJankidaipur  08:48+508:49+51m--110.46013mECoRChandanpur, Odisha
4SILSakhi Gopal (3)X  08:55+508:56+61m--116.46710mECoRPuri, Odisha
5BRSTBir Purushottampur  09:01+909:02+101m--122.04512mECoRSatasankha, Odisha
6JPRDJenapur Road  09:07-09:08-1m--125.73610mECoRKhordha, Odisha
7DEGDelang  09:13+1309:14+131m--128.7449mECoRKhordha, Odisha
8KASRKanas RoadX  09:19+1409:20+141m--132.4429mECoRKhordha, Odisha
9MWQMotari Halt  09:25+1409:26+141m--135.94612mECoRMotari, Odisha
10HPGMHaripur GramX  09:33+709:34+71m--141.31022mECoRKhordha, Odisha
11KUR•Khurda Road Junction (7)•X09:50+510:10+2920m--143.95325mECoRKhordha, Odisha
12ARGLArgul P.H.  10:16+3210:17+321m--149.24024mECoRKhordha, Odisha
13KPXRKaipadar RoadX  10:23+3210:24+341m--153.26822mECoRKaipada Road, Odisha
14DLMHDhaulimuhanX  10:28+3510:29+351m--157.74621mECoRKhordha, Odisha
15TAPTapangX  10:34+3510:35+361m--161.67215mECoRKhordha, Odisha
16GLBAGolabaiO  10:39+3610:40+361m--166.44813mECoRKhordha, Odisha
17NKPNirakarpurX  10:45+3610:46+371m--170.37121mECoRNirakarpur, Odisha
18BSDPBhusandpur  10:52+4010:53+411m--177.46620mECoRBhushandapur, Odisha
19MKTPMuketashwar  10:58+4210:59+421m--182.95213mECoRKhordha, Odisha
20KAPGKalupara Ghat  11:04+4211:05+441m--187.36710mECoRChandeswar, Odisha
21KUUKuhuri  11:11+4711:12+471m--194.06826mECoRKhordha, Odisha
22GNGDGangadharpur  11:19+4811:20+501m--1102.06222mECoRKhordha, Odisha
23SLZSolari  11:25+5111:26+511m--1107.15218mECoRSolari, Odisha
24BALUBalugaon (3)X  11:35+5111:40+525m--1115.07211mECoR752030, Odisha
25CLKAChilka  11:46+5511:47+561m--1122.27725mECoRBarkul, Odisha
26KLJIKalijai  11:51+5711:52+571m--1127.45811mECoRGarh, Odisha
27KITKhallikot (3)X  11:57+5711:58+581m--1132.27513mECoRKhallikot, Odisha
28RBARambha  12:07+5912:08+1:001m--1143.47414mECoRGanjam District, Odisha
29HMAHumma  12:17+1:0212:18+1:041m--1154.47519mECoRGanjam District, Odisha
30GAMGanjam  12:23+1:0712:24+1:081m--1160.7608mECoRGanjam, Odisha
31CAPCChatrapur Court (2)  12:32+1:0812:33+1:081m--1168.71432mECoRChatrapur, Odisha
32CAPChatrapurX  12:37+1:0712:42+1:055m--1169.63736mECoRChatrapur, Odisha
33NRSPNarasimhapuraX  12:48+1:0512:49+1:051m--1173.310850mECoRGanjam, Odisha
34JNPJagan Nathapur  12:54+1:0512:55+1:071m--1182.35229mECoRBerhampur, Odisha
35BAMBrahmapur (3)  13:05+1:0513:15+1:0510m21191.07127mECoRBerhampur, Odisha
36GTAGolanthra  13:24+1:1013:25+1:121m--1201.75328mECoRGanjam, Odisha
37SLRDSurla Road  13:31+1:1213:33+1:122m--1207.16318mECoRGanjam, Odisha
38IPMIchchapuram  13:41+1:1513:42+1:181m--1215.57921mECoRIchchapuram, Andhra Pradesh
39JPIJhadupudi  13:51+1:1913:52+1:201m--1227.37538mECoRSrikakulam, Andhra Pradesh
40SPTSompeta (4)X  13:57+1:2213:58+1:231m--1233.56348mECoRKanchili, Andhra Pradesh
41BAVBaruva  14:07+1:2314:08+1:251m--1242.98117mECoRSrikakulam, Andhra Pradesh
42MMSMandasa Road  14:15+1:2714:16+1:271m--1252.35638mECoRSrikakulam, Andhra Pradesh
43SUDVSummadeviXO  14:23+1:2114:24+1:241m--1258.8658mECoRSummadevi, Andhra Pradesh
44PSAPalasa (3)O  15:25+4816:00+5535m31265.46131mECoRKasibugga, Andhra Pradesh
45PUNPundiX  16:12+1:0416:14+1:042m--1277.65438mECoRSrikakulam, Andhra Pradesh
46RMZRouthpuram HaltX  16:21+1:0116:22+1:011m--1283.93312mECoRSrikakulam, Andhra Pradesh
47NWPNaupada Junction  16:35+1:0016:45+5610m--1291.13913mECoRNuapada . ph.no. 08945-249728, Andhra Pradesh
48TEKTekkali Halt  16:55+5616:56+561m--1297.73436mECoRTekkali, Andhra Pradesh
49PDSNPeddasana  17:05+5617:06+561m--1302.84226mECoRNational Highway 5, Andhra Pradesh
50TMBTemburu  17:19+5617:20+561m--1311.93276mECoRParalakhemundi, Andhra Pradesh
51GVAGanguwada  17:28+5617:29+561m--1316.24278mECoRGanguwada, Andhra Pradesh
52PHMPatapatnam  17:43+5517:44+551m--1326.01668mECoRSrikakulam District, Andhra Pradesh
53PLHParlakhemundi (1)  18:00+4918:02+492m11330.43760mECoRParalakhemundi, Odisha
54SPRMSitapuram Halt  18:22+4718:23+471m--1342.83258mECoRParalakhemundi, Odisha
55HBFHadobhangi Halt  18:31+4718:32+471m--1347.23968mECoRParalakhemundi, Odisha
56KNGRKashinagar Halt  18:45+4718:46+471m--1355.63762mECoRKashinagar, Odisha
57LRILihuri Halt  18:57+4718:58+471m--1362.43969mECoRLihuri Halt, Andhra Pradesh
58BSDRBansadhara Halt  19:09+4719:10+471m--1369.53678mECoRBansadhara Halt Railway Station, Odisha
59PLSGPalasingi  19:19+2419:20+241m--1374.81587mECoRDistt Gajapati, Odisha
60GNPRGunupur  19:45+23---1381.2-92mECoRGunupur, Odisha
Scroll to Top
Scroll to Bottom